sensor_id;sensor_type;location;lat;lon;timestamp;temperature;humidity
16102;DHT22;56411;52.964;10.540;2022-07-24T00:00:37;12.30;99.90
16102;DHT22;56411;52.964;10.540;2022-07-24T00:03:04;12.10;99.90
16102;DHT22;56411;52.964;10.540;2022-07-24T00:05:31;11.90;99.90
16102;DHT22;56411;52.964;10.540;2022-07-24T00:07:58;11.80;99.90
16102;DHT22;56411;52.964;10.540;2022-07-24T00:10:26;11.80;99.90
16102;DHT22;56411;52.964;10.540;2022-07-24T00:12:53;11.80;99.90
16102;DHT22;56411;52.964;10.540;2022-07-24T00:15:21;11.70;99.90
16102;DHT22;56411;52.964;10.540;2022-07-24T00:17:48;11.60;99.90
16102;DHT22;56411;52.964;10.540;2022-07-24T00:20:15;11.50;99.90
16102;DHT22;56411;52.964;10.540;2022-07-24T00:22:42;11.50;99.90
16102;DHT22;56411;52.964;10.540;2022-07-24T00:25:09;11.40;99.90
16102;DHT22;56411;52.964;10.540;2022-07-24T00:27:36;11.40;99.90
16102;DHT22;56411;52.964;10.540;2022-07-24T00:30:03;11.30;99.90
16102;DHT22;56411;52.964;10.540;2022-07-24T00:32:32;11.30;99.90
16102;DHT22;56411;52.964;10.540;2022-07-24T00:35:00;11.30;99.90
16102;DHT22;56411;52.964;10.540;2022-07-24T00:37:27;11.20;99.90
16102;DHT22;56411;52.964;10.540;2022-07-24T00:39:54;11.20;99.90
16102;DHT22;56411;52.964;10.540;2022-07-24T00:42:21;11.10;99.90
16102;DHT22;56411;52.964;10.540;2022-07-24T00:44:48;11.20;99.90
16102;DHT22;56411;52.964;10.540;2022-07-24T00:47:15;11.20;99.90
16102;DHT22;56411;52.964;10.540;2022-07-24T00:49:46;11.20;99.90
16102;DHT22;56411;52.964;10.540;2022-07-24T00:52:13;11.20;99.90
16102;DHT22;56411;52.964;10.540;2022-07-24T00:54:40;11.20;99.90
16102;DHT22;56411;52.964;10.540;2022-07-24T00:57:07;11.30;99.90
16102;DHT22;56411;52.964;10.540;2022-07-24T00:59:33;11.20;99.90
16102;DHT22;56411;52.964;10.540;2022-07-24T01:02:02;11.20;99.90
16102;DHT22;56411;52.964;10.540;2022-07-24T01:04:29;11.10;99.90
16102;DHT22;56411;52.964;10.540;2022-07-24T01:06:58;11.00;99.90
16102;DHT22;56411;52.964;10.540;2022-07-24T01:09:25;10.80;99.90
16102;DHT22;56411;52.964;10.540;2022-07-24T01:11:52;10.70;99.90
16102;DHT22;56411;52.964;10.540;2022-07-24T01:14:20;10.60;99.90
16102;DHT22;56411;52.964;10.540;2022-07-24T01:16:47;10.60;99.90
16102;DHT22;56411;52.964;10.540;2022-07-24T01:19:14;10.50;99.90
16102;DHT22;56411;52.964;10.540;2022-07-24T01:21:46;10.50;99.90
16102;DHT22;56411;52.964;10.540;2022-07-24T01:24:14;10.40;99.90
16102;DHT22;56411;52.964;10.540;2022-07-24T01:26:42;10.50;99.90
16102;DHT22;56411;52.964;10.540;2022-07-24T01:29:11;10.50;99.90
16102;DHT22;56411;52.964;10.540;2022-07-24T01:31:38;10.50;99.90
16102;DHT22;56411;52.964;10.540;2022-07-24T01:34:05;10.50;99.90
16102;DHT22;56411;52.964;10.540;2022-07-24T01:36:32;10.50;99.90
16102;DHT22;56411;52.964;10.540;2022-07-24T01:39:01;10.50;99.90
16102;DHT22;56411;52.964;10.540;2022-07-24T01:41:28;10.50;99.90
16102;DHT22;56411;52.964;10.540;2022-07-24T01:43:55;10.60;99.90
16102;DHT22;56411;52.964;10.540;2022-07-24T01:46:22;10.70;99.90
16102;DHT22;56411;52.964;10.540;2022-07-24T01:48:49;10.60;99.90
16102;DHT22;56411;52.964;10.540;2022-07-24T01:51:16;10.50;99.90
16102;DHT22;56411;52.964;10.540;2022-07-24T01:53:43;10.40;99.90
16102;DHT22;56411;52.964;10.540;2022-07-24T01:56:11;10.40;99.90
16102;DHT22;56411;52.964;10.540;2022-07-24T01:58:38;10.40;99.90
16102;DHT22;56411;52.964;10.540;2022-07-24T02:01:05;10.50;99.90
16102;DHT22;56411;52.964;10.540;2022-07-24T02:03:32;10.50;99.90
16102;DHT22;56411;52.964;10.540;2022-07-24T02:05:59;10.60;99.90
16102;DHT22;56411;52.964;10.540;2022-07-24T02:08:26;10.50;99.90
16102;DHT22;56411;52.964;10.540;2022-07-24T02:10:53;10.40;99.90
16102;DHT22;56411;52.964;10.540;2022-07-24T02:13:21;10.40;99.90
16102;DHT22;56411;52.964;10.540;2022-07-24T02:15:48;10.40;99.90
16102;DHT22;56411;52.964;10.540;2022-07-24T02:18:15;10.40;99.90
16102;DHT22;56411;52.964;10.540;2022-07-24T02:20:42;10.40;99.90
16102;DHT22;56411;52.964;10.540;2022-07-24T02:23:09;10.40;99.90
16102;DHT22;56411;52.964;10.540;2022-07-24T02:25:36;10.40;99.90
16102;DHT22;56411;52.964;10.540;2022-07-24T02:28:03;10.30;99.90
16102;DHT22;56411;52.964;10.540;2022-07-24T02:30:31;10.20;99.90
16102;DHT22;56411;52.964;10.540;2022-07-24T02:32:58;10.10;99.90
16102;DHT22;56411;52.964;10.540;2022-07-24T02:35:25;10.10;99.90
16102;DHT22;56411;52.964;10.540;2022-07-24T02:37:52;10.00;99.90
16102;DHT22;56411;52.964;10.540;2022-07-24T02:40:19;10.00;99.90
16102;DHT22;56411;52.964;10.540;2022-07-24T02:42:46;9.90;99.90
16102;DHT22;56411;52.964;10.540;2022-07-24T02:45:13;9.90;99.90
16102;DHT22;56411;52.964;10.540;2022-07-24T02:47:52;9.90;99.90
16102;DHT22;56411;52.964;10.540;2022-07-24T02:50:20;9.90;99.90
16102;DHT22;56411;52.964;10.540;2022-07-24T02:52:47;9.90;99.90
16102;DHT22;56411;52.964;10.540;2022-07-24T02:55:15;9.80;99.90
16102;DHT22;56411;52.964;10.540;2022-07-24T02:57:43;9.80;99.90
16102;DHT22;56411;52.964;10.540;2022-07-24T03:00:12;9.80;99.90
16102;DHT22;56411;52.964;10.540;2022-07-24T03:02:40;9.80;99.90
16102;DHT22;56411;52.964;10.540;2022-07-24T03:05:09;9.80;99.90
16102;DHT22;56411;52.964;10.540;2022-07-24T03:07:36;9.80;99.90
16102;DHT22;56411;52.964;10.540;2022-07-24T03:10:04;9.80;99.90
16102;DHT22;56411;52.964;10.540;2022-07-24T03:12:31;9.80;99.90
16102;DHT22;56411;52.964;10.540;2022-07-24T03:14:58;9.90;99.90
16102;DHT22;56411;52.964;10.540;2022-07-24T03:17:24;9.90;99.90
16102;DHT22;56411;52.964;10.540;2022-07-24T03:19:51;9.80;99.90
16102;DHT22;56411;52.964;10.540;2022-07-24T03:22:20;9.80;99.90
16102;DHT22;56411;52.964;10.540;2022-07-24T03:24:47;9.80;99.90
16102;DHT22;56411;52.964;10.540;2022-07-24T03:27:13;9.80;99.90
16102;DHT22;56411;52.964;10.540;2022-07-24T03:29:40;9.80;99.90
16102;DHT22;56411;52.964;10.540;2022-07-24T03:32:07;9.70;99.90
16102;DHT22;56411;52.964;10.540;2022-07-24T03:34:34;9.70;99.90
16102;DHT22;56411;52.964;10.540;2022-07-24T03:37:01;9.70;99.90
16102;DHT22;56411;52.964;10.540;2022-07-24T03:39:29;9.70;99.90
16102;DHT22;56411;52.964;10.540;2022-07-24T03:41:56;9.70;99.90
16102;DHT22;56411;52.964;10.540;2022-07-24T03:44:23;9.70;99.90
16102;DHT22;56411;52.964;10.540;2022-07-24T03:46:50;9.80;99.90
16102;DHT22;56411;52.964;10.540;2022-07-24T03:49:17;9.90;99.90
16102;DHT22;56411;52.964;10.540;2022-07-24T03:51:44;10.00;99.90
16102;DHT22;56411;52.964;10.540;2022-07-24T03:54:11;10.10;99.90
16102;DHT22;56411;52.964;10.540;2022-07-24T03:56:39;10.10;99.90
16102;DHT22;56411;52.964;10.540;2022-07-24T03:59:06;10.10;99.90
16102;DHT22;56411;52.964;10.540;2022-07-24T04:01:33;10.00;99.90
16102;DHT22;56411;52.964;10.540;2022-07-24T04:04:00;10.00;99.90
16102;DHT22;56411;52.964;10.540;2022-07-24T04:06:30;10.00;99.90
16102;DHT22;56411;52.964;10.540;2022-07-24T04:08:57;10.00;99.90
16102;DHT22;56411;52.964;10.540;2022-07-24T04:11:24;10.00;99.90
16102;DHT22;56411;52.964;10.540;2022-07-24T04:13:52;10.10;99.90
16102;DHT22;56411;52.964;10.540;2022-07-24T04:16:19;10.10;99.90
16102;DHT22;56411;52.964;10.540;2022-07-24T04:18:46;10.10;99.90
16102;DHT22;56411;52.964;10.540;2022-07-24T04:21:13;10.10;99.90
16102;DHT22;56411;52.964;10.540;2022-07-24T04:23:40;10.20;99.90
16102;DHT22;56411;52.964;10.540;2022-07-24T04:26:07;10.20;99.90
16102;DHT22;56411;52.964;10.540;2022-07-24T04:28:34;10.30;99.90
16102;DHT22;56411;52.964;10.540;2022-07-24T04:31:03;10.30;99.90
16102;DHT22;56411;52.964;10.540;2022-07-24T04:33:30;10.40;99.90
16102;DHT22;56411;52.964;10.540;2022-07-24T04:35:57;10.50;99.90
16102;DHT22;56411;52.964;10.540;2022-07-24T04:38:24;10.60;99.90
16102;DHT22;56411;52.964;10.540;2022-07-24T04:40:51;10.70;99.90
16102;DHT22;56411;52.964;10.540;2022-07-24T04:43:18;10.80;99.90
16102;DHT22;56411;52.964;10.540;2022-07-24T04:45:45;10.80;99.90
16102;DHT22;56411;52.964;10.540;2022-07-24T04:48:13;10.90;99.90
16102;DHT22;56411;52.964;10.540;2022-07-24T04:50:40;11.00;99.90
16102;DHT22;56411;52.964;10.540;2022-07-24T04:53:07;11.00;99.90
16102;DHT22;56411;52.964;10.540;2022-07-24T04:55:34;11.00;99.90
16102;DHT22;56411;52.964;10.540;2022-07-24T04:58:01;11.00;99.90
16102;DHT22;56411;52.964;10.540;2022-07-24T05:00:28;11.10;99.90
16102;DHT22;56411;52.964;10.540;2022-07-24T05:02:55;11.10;99.90
16102;DHT22;56411;52.964;10.540;2022-07-24T05:05:23;11.20;99.90
16102;DHT22;56411;52.964;10.540;2022-07-24T05:07:50;11.30;99.90
16102;DHT22;56411;52.964;10.540;2022-07-24T05:10:17;11.30;99.90
16102;DHT22;56411;52.964;10.540;2022-07-24T05:12:44;11.40;99.90
16102;DHT22;56411;52.964;10.540;2022-07-24T05:15:11;11.50;99.90
16102;DHT22;56411;52.964;10.540;2022-07-24T05:17:38;11.60;99.90
16102;DHT22;56411;52.964;10.540;2022-07-24T05:20:05;11.70;99.90
16102;DHT22;56411;52.964;10.540;2022-07-24T05:22:34;11.80;99.90
16102;DHT22;56411;52.964;10.540;2022-07-24T05:25:01;11.90;99.90
16102;DHT22;56411;52.964;10.540;2022-07-24T05:27:28;12.00;99.90
16102;DHT22;56411;52.964;10.540;2022-07-24T05:29:55;12.00;99.90
16102;DHT22;56411;52.964;10.540;2022-07-24T05:32:22;12.10;99.90
16102;DHT22;56411;52.964;10.540;2022-07-24T05:34:49;12.20;99.90
16102;DHT22;56411;52.964;10.540;2022-07-24T05:37:15;12.30;99.90
16102;DHT22;56411;52.964;10.540;2022-07-24T05:39:44;12.50;99.90
16102;DHT22;56411;52.964;10.540;2022-07-24T05:42:11;12.60;99.90
16102;DHT22;56411;52.964;10.540;2022-07-24T05:44:38;12.70;99.90
16102;DHT22;56411;52.964;10.540;2022-07-24T05:47:05;12.80;99.90
16102;DHT22;56411;52.964;10.540;2022-07-24T05:49:32;12.90;99.90
16102;DHT22;56411;52.964;10.540;2022-07-24T05:51:58;13.00;99.90
16102;DHT22;56411;52.964;10.540;2022-07-24T05:54:27;13.10;99.90
16102;DHT22;56411;52.964;10.540;2022-07-24T05:56:56;13.30;99.90
16102;DHT22;56411;52.964;10.540;2022-07-24T05:59:23;13.40;99.90
16102;DHT22;56411;52.964;10.540;2022-07-24T06:01:49;13.50;99.90
16102;DHT22;56411;52.964;10.540;2022-07-24T06:04:16;13.60;99.90
16102;DHT22;56411;52.964;10.540;2022-07-24T06:06:43;13.80;99.90
16102;DHT22;56411;52.964;10.540;2022-07-24T06:09:10;13.90;99.90
16102;DHT22;56411;52.964;10.540;2022-07-24T06:11:37;14.00;99.90
16102;DHT22;56411;52.964;10.540;2022-07-24T06:14:05;14.10;99.90
16102;DHT22;56411;52.964;10.540;2022-07-24T06:16:32;14.20;99.90
16102;DHT22;56411;52.964;10.540;2022-07-24T06:18:59;14.40;99.90
16102;DHT22;56411;52.964;10.540;2022-07-24T06:21:27;14.50;99.90
16102;DHT22;56411;52.964;10.540;2022-07-24T06:23:54;14.70;99.90
16102;DHT22;56411;52.964;10.540;2022-07-24T06:26:21;14.90;99.90
16102;DHT22;56411;52.964;10.540;2022-07-24T06:28:48;15.10;99.90
16102;DHT22;56411;52.964;10.540;2022-07-24T06:31:17;15.30;99.90
16102;DHT22;56411;52.964;10.540;2022-07-24T06:33:44;15.40;99.90
16102;DHT22;56411;52.964;10.540;2022-07-24T06:36:11;15.50;99.90
16102;DHT22;56411;52.964;10.540;2022-07-24T06:38:38;15.70;99.90
16102;DHT22;56411;52.964;10.540;2022-07-24T06:41:05;15.80;99.90
16102;DHT22;56411;52.964;10.540;2022-07-24T06:43:31;16.00;99.90
16102;DHT22;56411;52.964;10.540;2022-07-24T06:45:58;16.20;99.90
16102;DHT22;56411;52.964;10.540;2022-07-24T06:48:27;16.30;99.90
16102;DHT22;56411;52.964;10.540;2022-07-24T06:50:54;16.40;99.90
16102;DHT22;56411;52.964;10.540;2022-07-24T06:53:21;16.60;99.90
16102;DHT22;56411;52.964;10.540;2022-07-24T06:55:48;16.70;99.90
16102;DHT22;56411;52.964;10.540;2022-07-24T06:58:19;16.80;99.90
16102;DHT22;56411;52.964;10.540;2022-07-24T07:00:46;16.90;99.90
16102;DHT22;56411;52.964;10.540;2022-07-24T07:03:13;17.00;99.90
16102;DHT22;56411;52.964;10.540;2022-07-24T07:05:41;17.10;99.90
16102;DHT22;56411;52.964;10.540;2022-07-24T07:08:08;17.20;99.90
16102;DHT22;56411;52.964;10.540;2022-07-24T07:10:35;17.30;99.90
16102;DHT22;56411;52.964;10.540;2022-07-24T07:13:02;17.50;99.90
16102;DHT22;56411;52.964;10.540;2022-07-24T07:15:29;17.60;99.90
16102;DHT22;56411;52.964;10.540;2022-07-24T07:17:56;17.70;99.90
16102;DHT22;56411;52.964;10.540;2022-07-24T07:20:23;17.80;99.90
16102;DHT22;56411;52.964;10.540;2022-07-24T07:22:51;17.90;99.90
16102;DHT22;56411;52.964;10.540;2022-07-24T07:25:18;18.10;99.90
16102;DHT22;56411;52.964;10.540;2022-07-24T07:27:45;18.20;99.90
16102;DHT22;56411;52.964;10.540;2022-07-24T07:30:12;18.30;99.90
16102;DHT22;56411;52.964;10.540;2022-07-24T07:32:40;18.40;99.90
16102;DHT22;56411;52.964;10.540;2022-07-24T07:35:08;18.50;99.90
16102;DHT22;56411;52.964;10.540;2022-07-24T07:37:35;18.60;99.90
16102;DHT22;56411;52.964;10.540;2022-07-24T07:40:04;18.60;99.90
16102;DHT22;56411;52.964;10.540;2022-07-24T07:42:32;18.80;99.90
16102;DHT22;56411;52.964;10.540;2022-07-24T07:44:59;18.90;99.90
16102;DHT22;56411;52.964;10.540;2022-07-24T07:47:29;19.00;99.90
16102;DHT22;56411;52.964;10.540;2022-07-24T07:49:56;19.10;99.90
16102;DHT22;56411;52.964;10.540;2022-07-24T07:52:23;19.20;99.90
16102;DHT22;56411;52.964;10.540;2022-07-24T07:55:11;19.20;99.90
16102;DHT22;56411;52.964;10.540;2022-07-24T07:57:48;19.30;99.90
16102;DHT22;56411;52.964;10.540;2022-07-24T08:00:16;19.40;99.90
16102;DHT22;56411;52.964;10.540;2022-07-24T08:02:45;19.60;99.90
16102;DHT22;56411;52.964;10.540;2022-07-24T08:05:12;19.70;99.90
16102;DHT22;56411;52.964;10.540;2022-07-24T08:07:39;19.80;99.90
16102;DHT22;56411;52.964;10.540;2022-07-24T08:10:08;19.90;99.90
16102;DHT22;56411;52.964;10.540;2022-07-24T08:12:37;20.00;99.90
16102;DHT22;56411;52.964;10.540;2022-07-24T08:15:05;20.10;99.90
16102;DHT22;56411;52.964;10.540;2022-07-24T08:17:32;20.20;99.90
16102;DHT22;56411;52.964;10.540;2022-07-24T08:20:00;20.20;99.90
16102;DHT22;56411;52.964;10.540;2022-07-24T08:22:28;20.30;99.90
16102;DHT22;56411;52.964;10.540;2022-07-24T08:24:55;20.40;99.90
16102;DHT22;56411;52.964;10.540;2022-07-24T08:27:22;20.60;99.90
16102;DHT22;56411;52.964;10.540;2022-07-24T08:29:50;20.60;99.90
16102;DHT22;56411;52.964;10.540;2022-07-24T08:32:17;20.80;99.90
16102;DHT22;56411;52.964;10.540;2022-07-24T08:34:44;20.80;99.90
16102;DHT22;56411;52.964;10.540;2022-07-24T08:37:11;21.00;99.90
16102;DHT22;56411;52.964;10.540;2022-07-24T08:39:38;21.10;99.90
16102;DHT22;56411;52.964;10.540;2022-07-24T08:42:07;21.20;99.90
16102;DHT22;56411;52.964;10.540;2022-07-24T08:44:34;21.30;99.90
16102;DHT22;56411;52.964;10.540;2022-07-24T08:47:03;21.40;99.90
16102;DHT22;56411;52.964;10.540;2022-07-24T08:49:33;21.60;99.90
16102;DHT22;56411;52.964;10.540;2022-07-24T08:52:03;21.60;99.90
16102;DHT22;56411;52.964;10.540;2022-07-24T08:54:30;21.70;99.90
16102;DHT22;56411;52.964;10.540;2022-07-24T08:56:59;21.80;99.90
16102;DHT22;56411;52.964;10.540;2022-07-24T08:59:26;21.90;99.90
16102;DHT22;56411;52.964;10.540;2022-07-24T09:01:53;21.90;99.90
16102;DHT22;56411;52.964;10.540;2022-07-24T09:04:37;22.00;99.90
16102;DHT22;56411;52.964;10.540;2022-07-24T09:07:06;22.00;99.90
16102;DHT22;56411;52.964;10.540;2022-07-24T09:09:33;22.20;99.90
16102;DHT22;56411;52.964;10.540;2022-07-24T09:12:08;22.30;99.90
16102;DHT22;56411;52.964;10.540;2022-07-24T09:14:39;22.40;99.90
16102;DHT22;56411;52.964;10.540;2022-07-24T09:17:08;22.50;99.90
16102;DHT22;56411;52.964;10.540;2022-07-24T09:19:47;22.60;99.90
16102;DHT22;56411;52.964;10.540;2022-07-24T09:22:33;22.70;99.90
16102;DHT22;56411;52.964;10.540;2022-07-24T09:25:06;22.70;99.90
16102;DHT22;56411;52.964;10.540;2022-07-24T09:27:33;22.80;99.90
16102;DHT22;56411;52.964;10.540;2022-07-24T09:30:01;22.80;99.90
16102;DHT22;56411;52.964;10.540;2022-07-24T09:32:28;22.90;99.90
16102;DHT22;56411;52.964;10.540;2022-07-24T09:34:56;23.00;99.90
16102;DHT22;56411;52.964;10.540;2022-07-24T09:37:26;23.10;99.90
16102;DHT22;56411;52.964;10.540;2022-07-24T09:40:08;23.20;99.90
16102;DHT22;56411;52.964;10.540;2022-07-24T09:42:36;23.20;99.90
16102;DHT22;56411;52.964;10.540;2022-07-24T09:45:08;23.20;99.90
16102;DHT22;56411;52.964;10.540;2022-07-24T09:47:38;23.20;99.90
16102;DHT22;56411;52.964;10.540;2022-07-24T09:50:14;23.30;99.90
16102;DHT22;56411;52.964;10.540;2022-07-24T09:52:42;23.40;99.90
16102;DHT22;56411;52.964;10.540;2022-07-24T09:55:21;23.50;99.90
16102;DHT22;56411;52.964;10.540;2022-07-24T09:57:48;23.60;99.90
16102;DHT22;56411;52.964;10.540;2022-07-24T10:00:16;23.70;99.90
16102;DHT22;56411;52.964;10.540;2022-07-24T10:02:44;23.90;99.90
16102;DHT22;56411;52.964;10.540;2022-07-24T10:05:14;24.00;99.90
16102;DHT22;56411;52.964;10.540;2022-07-24T10:07:42;24.10;99.90
16102;DHT22;56411;52.964;10.540;2022-07-24T10:10:12;24.10;99.90
16102;DHT22;56411;52.964;10.540;2022-07-24T10:12:39;24.20;99.90
16102;DHT22;56411;52.964;10.540;2022-07-24T10:15:07;24.20;99.90
16102;DHT22;56411;52.964;10.540;2022-07-24T10:18:05;24.40;99.90
16102;DHT22;56411;52.964;10.540;2022-07-24T10:20:41;24.50;99.90
16102;DHT22;56411;52.964;10.540;2022-07-24T10:23:08;24.60;99.90
16102;DHT22;56411;52.964;10.540;2022-07-24T10:25:56;24.70;99.90
16102;DHT22;56411;52.964;10.540;2022-07-24T10:28:39;24.90;99.90
16102;DHT22;56411;52.964;10.540;2022-07-24T10:31:08;24.90;99.90
16102;DHT22;56411;52.964;10.540;2022-07-24T10:33:36;25.10;99.90
16102;DHT22;56411;52.964;10.540;2022-07-24T10:36:12;25.30;99.90
16102;DHT22;56411;52.964;10.540;2022-07-24T10:38:44;25.40;99.90
16102;DHT22;56411;52.964;10.540;2022-07-24T10:41:21;25.50;99.90
16102;DHT22;56411;52.964;10.540;2022-07-24T10:44:14;25.60;99.90
16102;DHT22;56411;52.964;10.540;2022-07-24T10:47:05;25.80;99.90
16102;DHT22;56411;52.964;10.540;2022-07-24T10:49:45;25.90;99.90
16102;DHT22;56411;52.964;10.540;2022-07-24T10:52:24;25.90;99.90
16102;DHT22;56411;52.964;10.540;2022-07-24T10:55:22;26.10;99.90
16102;DHT22;56411;52.964;10.540;2022-07-24T10:57:55;26.20;99.90
16102;DHT22;56411;52.964;10.540;2022-07-24T11:00:24;26.50;99.90
16102;DHT22;56411;52.964;10.540;2022-07-24T11:02:59;26.40;99.90
16102;DHT22;56411;52.964;10.540;2022-07-24T11:05:32;26.30;99.90
16102;DHT22;56411;52.964;10.540;2022-07-24T11:08:36;26.50;99.90
16102;DHT22;56411;52.964;10.540;2022-07-24T11:11:08;26.60;99.90
16102;DHT22;56411;52.964;10.540;2022-07-24T11:16:29;27.50;99.90
16102;DHT22;56411;52.964;10.540;2022-07-24T11:19:25;28.10;99.90
16102;DHT22;56411;52.964;10.540;2022-07-24T11:22:10;28.50;99.90
16102;DHT22;56411;52.964;10.540;2022-07-24T11:24:45;29.10;99.90
16102;DHT22;56411;52.964;10.540;2022-07-24T11:27:44;29.00;99.90
16102;DHT22;56411;52.964;10.540;2022-07-24T11:30:11;29.00;99.90
16102;DHT22;56411;52.964;10.540;2022-07-24T11:32:39;29.10;99.90
16102;DHT22;56411;52.964;10.540;2022-07-24T11:35:06;28.90;99.90
16102;DHT22;56411;52.964;10.540;2022-07-24T11:37:34;28.80;99.70
16102;DHT22;56411;52.964;10.540;2022-07-24T11:40:06;28.90;99.90
16102;DHT22;56411;52.964;10.540;2022-07-24T11:42:34;29.10;98.10
16102;DHT22;56411;52.964;10.540;2022-07-24T11:45:02;29.40;98.50
16102;DHT22;56411;52.964;10.540;2022-07-24T11:47:29;29.80;96.90
16102;DHT22;56411;52.964;10.540;2022-07-24T11:49:58;29.80;96.80
16102;DHT22;56411;52.964;10.540;2022-07-24T11:52:28;30.10;96.50
16102;DHT22;56411;52.964;10.540;2022-07-24T11:54:59;30.60;96.20
16102;DHT22;56411;52.964;10.540;2022-07-24T11:57:30;30.30;95.50
16102;DHT22;56411;52.964;10.540;2022-07-24T11:59:59;30.40;96.60
16102;DHT22;56411;52.964;10.540;2022-07-24T12:02:26;30.60;96.60
16102;DHT22;56411;52.964;10.540;2022-07-24T12:04:53;31.00;95.90
16102;DHT22;56411;52.964;10.540;2022-07-24T12:07:24;31.10;94.80
16102;DHT22;56411;52.964;10.540;2022-07-24T12:09:53;31.30;93.10
16102;DHT22;56411;52.964;10.540;2022-07-24T12:12:22;31.20;92.40
16102;DHT22;56411;52.964;10.540;2022-07-24T12:15:00;31.30;93.50
16102;DHT22;56411;52.964;10.540;2022-07-24T12:17:29;31.30;93.10
16102;DHT22;56411;52.964;10.540;2022-07-24T12:20:00;30.80;93.00
16102;DHT22;56411;52.964;10.540;2022-07-24T12:22:28;30.40;93.40
16102;DHT22;56411;52.964;10.540;2022-07-24T12:24:56;30.70;93.60
16102;DHT22;56411;52.964;10.540;2022-07-24T12:27:35;30.80;91.90
16102;DHT22;56411;52.964;10.540;2022-07-24T12:30:15;31.00;92.50
16102;DHT22;56411;52.964;10.540;2022-07-24T12:32:56;31.10;93.50
16102;DHT22;56411;52.964;10.540;2022-07-24T12:35:23;31.20;91.10
16102;DHT22;56411;52.964;10.540;2022-07-24T12:37:52;31.00;91.70
16102;DHT22;56411;52.964;10.540;2022-07-24T12:40:25;31.10;92.00
16102;DHT22;56411;52.964;10.540;2022-07-24T12:43:13;31.10;90.90
16102;DHT22;56411;52.964;10.540;2022-07-24T12:45:43;31.10;91.20
16102;DHT22;56411;52.964;10.540;2022-07-24T12:48:21;31.10;91.80
16102;DHT22;56411;52.964;10.540;2022-07-24T12:50:59;31.30;91.90
16102;DHT22;56411;52.964;10.540;2022-07-24T12:53:27;31.60;91.30
16102;DHT22;56411;52.964;10.540;2022-07-24T12:56:09;32.10;90.90
16102;DHT22;56411;52.964;10.540;2022-07-24T12:58:53;32.90;88.80
16102;DHT22;56411;52.964;10.540;2022-07-24T13:01:23;32.90;86.40
16102;DHT22;56411;52.964;10.540;2022-07-24T13:03:53;32.80;87.50
16102;DHT22;56411;52.964;10.540;2022-07-24T13:06:31;33.00;88.60
16102;DHT22;56411;52.964;10.540;2022-07-24T13:08:58;33.40;85.50
16102;DHT22;56411;52.964;10.540;2022-07-24T13:11:25;33.70;86.10
16102;DHT22;56411;52.964;10.540;2022-07-24T13:13:52;33.70;85.00
16102;DHT22;56411;52.964;10.540;2022-07-24T13:16:19;34.00;85.30
16102;DHT22;56411;52.964;10.540;2022-07-24T13:18:50;34.00;84.50
16102;DHT22;56411;52.964;10.540;2022-07-24T13:21:17;33.90;83.40
16102;DHT22;56411;52.964;10.540;2022-07-24T13:23:45;33.30;82.70
16102;DHT22;56411;52.964;10.540;2022-07-24T13:26:12;33.20;82.80
16102;DHT22;56411;52.964;10.540;2022-07-24T13:28:39;33.10;82.80
16102;DHT22;56411;52.964;10.540;2022-07-24T13:31:07;33.10;84.50
16102;DHT22;56411;52.964;10.540;2022-07-24T13:33:34;33.60;82.50
16102;DHT22;56411;52.964;10.540;2022-07-24T13:36:08;33.90;81.70
16102;DHT22;56411;52.964;10.540;2022-07-24T13:38:35;33.80;80.30
16102;DHT22;56411;52.964;10.540;2022-07-24T13:41:02;33.40;81.60
16102;DHT22;56411;52.964;10.540;2022-07-24T13:43:29;33.50;80.90
16102;DHT22;56411;52.964;10.540;2022-07-24T13:45:56;33.40;81.30
16102;DHT22;56411;52.964;10.540;2022-07-24T13:48:26;33.10;82.30
16102;DHT22;56411;52.964;10.540;2022-07-24T13:50:53;33.60;82.30
16102;DHT22;56411;52.964;10.540;2022-07-24T13:53:22;33.90;79.70
16102;DHT22;56411;52.964;10.540;2022-07-24T13:55:49;34.10;80.30
16102;DHT22;56411;52.964;10.540;2022-07-24T13:58:16;33.90;77.50
16102;DHT22;56411;52.964;10.540;2022-07-24T14:00:43;33.70;78.50
16102;DHT22;56411;52.964;10.540;2022-07-24T14:03:10;33.60;77.40
16102;DHT22;56411;52.964;10.540;2022-07-24T14:05:37;33.30;80.70
16102;DHT22;56411;52.964;10.540;2022-07-24T14:08:04;33.20;78.60
16102;DHT22;56411;52.964;10.540;2022-07-24T14:10:32;33.50;79.60
16102;DHT22;56411;52.964;10.540;2022-07-24T14:13:00;33.80;79.80
16102;DHT22;56411;52.964;10.540;2022-07-24T14:15:26;34.00;78.10
16102;DHT22;56411;52.964;10.540;2022-07-24T14:17:55;34.20;77.70
16102;DHT22;56411;52.964;10.540;2022-07-24T14:20:22;34.40;77.10
16102;DHT22;56411;52.964;10.540;2022-07-24T14:22:49;34.60;76.20
16102;DHT22;56411;52.964;10.540;2022-07-24T14:25:16;34.00;77.10
16102;DHT22;56411;52.964;10.540;2022-07-24T14:27:45;33.50;77.40
16102;DHT22;56411;52.964;10.540;2022-07-24T14:30:12;33.30;77.80
16102;DHT22;56411;52.964;10.540;2022-07-24T14:32:42;33.50;78.00
16102;DHT22;56411;52.964;10.540;2022-07-24T14:35:09;34.00;77.90
16102;DHT22;56411;52.964;10.540;2022-07-24T14:37:36;34.40;78.60
16102;DHT22;56411;52.964;10.540;2022-07-24T14:40:05;34.00;76.90
16102;DHT22;56411;52.964;10.540;2022-07-24T14:42:33;33.80;78.90
16102;DHT22;56411;52.964;10.540;2022-07-24T14:45:02;33.80;79.00
16102;DHT22;56411;52.964;10.540;2022-07-24T14:47:30;34.00;76.60
16102;DHT22;56411;52.964;10.540;2022-07-24T14:49:57;34.10;77.10
16102;DHT22;56411;52.964;10.540;2022-07-24T14:52:24;34.40;77.10
16102;DHT22;56411;52.964;10.540;2022-07-24T14:54:51;34.90;78.30
16102;DHT22;56411;52.964;10.540;2022-07-24T14:57:18;35.70;76.40
16102;DHT22;56411;52.964;10.540;2022-07-24T14:59:45;35.90;75.90
16102;DHT22;56411;52.964;10.540;2022-07-24T15:02:13;35.40;76.30
16102;DHT22;56411;52.964;10.540;2022-07-24T15:04:40;35.10;76.80
16102;DHT22;56411;52.964;10.540;2022-07-24T15:07:08;35.20;73.50
16102;DHT22;56411;52.964;10.540;2022-07-24T15:09:35;35.20;75.30
16102;DHT22;56411;52.964;10.540;2022-07-24T15:12:02;35.70;74.70
16102;DHT22;56411;52.964;10.540;2022-07-24T15:14:30;36.00;74.70
16102;DHT22;56411;52.964;10.540;2022-07-24T15:16:56;36.30;72.90
16102;DHT22;56411;52.964;10.540;2022-07-24T15:19:25;35.40;72.60
16102;DHT22;56411;52.964;10.540;2022-07-24T15:21:52;35.30;74.10
16102;DHT22;56411;52.964;10.540;2022-07-24T15:24:19;35.20;74.60
16102;DHT22;56411;52.964;10.540;2022-07-24T15:26:46;34.90;74.60
16102;DHT22;56411;52.964;10.540;2022-07-24T15:29:14;34.50;74.10
16102;DHT22;56411;52.964;10.540;2022-07-24T15:31:42;34.70;75.10